createdAt,value
2022-09-23T00:03:37.620Z,100904.20
2022-09-23T00:08:42.932Z,100900.20
2022-09-23T00:13:50.403Z,100893.00
2022-09-23T00:18:54.679Z,100894.60
2022-09-23T00:23:58.750Z,100895.00
2022-09-23T00:29:02.740Z,100891.00
2022-09-23T00:34:06.764Z,100890.60
2022-09-23T00:39:10.905Z,100889.00
2022-09-23T00:44:47.487Z,100883.20
2022-09-23T00:50:23.695Z,100883.80
2022-09-23T00:55:44.346Z,100885.40
2022-09-23T01:00:48.835Z,100891.00
2022-09-23T01:05:53.641Z,100890.00
2022-09-23T01:11:01.609Z,100884.40
2022-09-23T01:16:13.844Z,100882.60
2022-09-23T01:21:57.791Z,100871.60
2022-09-23T01:27:25.574Z,100872.60
2022-09-23T01:32:56.640Z,100865.40
2022-09-23T01:38:08.660Z,100867.40
2022-09-23T01:43:36.027Z,100870.60
2022-09-23T01:48:55.311Z,100867.20
2022-09-23T01:54:16.555Z,100871.80
2022-09-23T01:59:38.499Z,100868.80
2022-09-23T02:05:18.876Z,100868.00
2022-09-23T02:10:44.681Z,100865.20
2022-09-23T02:15:57.323Z,100870.40
2022-09-23T02:21:07.718Z,100861.60
2022-09-23T02:26:31.424Z,100866.20
2022-09-23T02:32:02.214Z,100863.20
2022-09-23T02:37:39.686Z,100858.00
2022-09-23T02:43:13.619Z,100857.20
2022-09-23T02:48:25.024Z,100858.40
2022-09-23T02:53:34.472Z,100860.40
2022-09-23T02:58:38.042Z,100856.40
2022-09-23T03:03:50.331Z,100849.40
2022-09-23T03:09:13.908Z,100849.40
2022-09-23T03:14:45.279Z,100848.40
2022-09-23T03:20:04.997Z,100850.00
2022-09-23T03:25:17.859Z,100845.80
2022-09-23T03:30:22.197Z,100840.60
2022-09-23T03:35:32.157Z,100838.80
2022-09-23T03:40:43.856Z,100838.80
2022-09-23T03:45:48.539Z,100831.80
2022-09-23T03:50:55.050Z,100833.20
2022-09-23T03:55:58.974Z,100840.20
2022-09-23T04:01:02.978Z,100825.20
2022-09-23T04:06:07.444Z,100828.40
2022-09-23T04:11:12.094Z,100834.00
2022-09-23T04:16:16.268Z,100824.20
2022-09-23T04:21:20.249Z,100825.20
2022-09-23T04:26:23.983Z,100821.40
2022-09-23T04:31:29.240Z,100817.60
2022-09-23T04:36:33.364Z,100818.60
2022-09-23T04:41:40.288Z,100816.40
2022-09-23T04:46:48.530Z,100811.60
2022-09-23T04:51:52.923Z,100810.00
2022-09-23T04:56:59.304Z,100812.00
2022-09-23T05:02:03.192Z,100809.00
2022-09-23T05:07:06.854Z,100810.00
2022-09-23T05:12:10.885Z,100803.00
2022-09-23T05:17:15.064Z,100800.80
2022-09-23T05:22:18.736Z,100811.40
2022-09-23T05:27:22.769Z,100812.20
2022-09-23T05:32:26.894Z,100796.80
2022-09-23T05:37:31.958Z,100806.60
2022-09-23T05:42:36.186Z,100820.60
2022-09-23T05:47:40.423Z,100820.80
2022-09-23T05:52:44.342Z,100818.60
2022-09-23T05:57:48.387Z,100823.20
2022-09-23T06:02:52.444Z,100820.20
2022-09-23T06:07:57.304Z,100820.60
2022-09-23T06:13:01.473Z,100818.40
2022-09-23T06:18:06.937Z,100815.20
2022-09-23T06:23:12.115Z,100813.80
2022-09-23T06:28:15.971Z,100806.00
2022-09-23T06:33:29.661Z,100828.00
2022-09-23T06:38:45.223Z,100827.20
2022-09-23T06:43:49.414Z,100830.40
2022-09-23T06:48:53.235Z,100830.60
2022-09-23T06:53:57.169Z,100811.80
2022-09-23T06:59:00.884Z,100817.40
2022-09-23T07:04:04.882Z,100816.00
2022-09-23T07:09:10.130Z,100816.00
2022-09-23T07:14:14.794Z,100820.40
2022-09-23T07:19:18.707Z,100827.00
2022-09-23T07:24:23.411Z,100817.40
2022-09-23T07:29:27.059Z,100816.80
2022-09-23T07:34:30.695Z,100818.60
2022-09-23T07:39:34.343Z,100817.00
2022-09-23T07:44:38.179Z,100817.80
2022-09-23T07:49:42.306Z,100808.60
2022-09-23T07:54:48.657Z,100824.40
2022-09-23T07:59:52.716Z,100808.40
2022-09-23T08:04:56.644Z,100811.00
2022-09-23T08:10:01.474Z,100817.60
2022-09-23T08:15:07.015Z,100809.60
2022-09-23T08:20:31.966Z,100813.20
2022-09-23T08:25:35.897Z,100811.20
2022-09-23T08:30:40.697Z,100817.00
2022-09-23T08:35:45.068Z,100817.20
2022-09-23T08:40:50.721Z,100817.40
2022-09-23T08:46:01.182Z,100816.80
2022-09-23T08:51:11.865Z,100812.40
2022-09-23T08:56:22.826Z,100811.40
2022-09-23T09:01:48.098Z,100811.60
2022-09-23T09:07:36.582Z,100807.60
2022-09-23T09:12:47.488Z,100797.40
2022-09-23T09:18:00.125Z,100799.00
2022-09-23T09:23:23.578Z,100799.40
2022-09-23T09:28:46.936Z,100794.80
2022-09-23T09:34:12.586Z,100781.20
2022-09-23T09:39:17.749Z,100768.80
2022-09-23T09:44:42.672Z,100761.40
2022-09-23T09:50:07.783Z,100769.00
2022-09-23T09:55:14.680Z,100770.00
2022-09-23T10:00:43.604Z,100781.00
2022-09-23T10:05:47.298Z,100768.60
2022-09-23T10:11:11.813Z,100769.40
2022-09-23T10:16:16.221Z,100760.00
2022-09-23T10:21:27.883Z,100750.00
2022-09-23T10:26:41.732Z,100753.00
2022-09-23T10:31:45.941Z,100764.80
2022-09-23T10:37:34.622Z,100761.60
2022-09-23T10:43:38.256Z,100755.40
2022-09-23T10:49:38.197Z,100749.80
2022-09-23T10:55:24.514Z,100747.20
2022-09-23T11:01:04.630Z,100748.00
2022-09-23T11:07:07.970Z,100750.60
2022-09-23T11:12:54.318Z,100742.80
2022-09-23T11:18:36.058Z,100744.80
2022-09-23T11:24:48.488Z,100747.00
2022-09-23T11:30:20.532Z,100746.20
2022-09-23T11:35:42.130Z,100746.00
2022-09-23T11:40:55.108Z,100740.80
2022-09-23T11:46:21.686Z,100736.60
2022-09-23T11:51:29.949Z,100741.20
2022-09-23T11:56:49.190Z,100736.20
2022-09-23T12:02:17.917Z,100745.20
2022-09-23T12:07:54.760Z,100738.80
2022-09-23T12:13:19.498Z,100741.00
2022-09-23T12:18:46.432Z,100737.20
2022-09-23T12:24:05.847Z,100729.40
2022-09-23T12:29:15.577Z,100720.80
2022-09-23T12:34:52.486Z,100717.80
2022-09-23T12:40:06.952Z,100713.60
2022-09-23T12:45:36.157Z,100716.80
2022-09-23T12:51:16.864Z,100713.20
2022-09-23T12:56:43.937Z,100707.20
2022-09-23T13:01:48.950Z,100702.00
2022-09-23T13:07:45.864Z,100703.00
2022-09-23T13:12:53.042Z,100695.40
2022-09-23T13:18:21.873Z,100696.40
2022-09-23T13:23:33.717Z,100688.80
2022-09-23T13:28:54.244Z,100684.80
2022-09-23T13:34:07.251Z,100681.40
2022-09-23T13:39:25.226Z,100672.60
2022-09-23T13:44:30.150Z,100672.40
2022-09-23T13:49:37.428Z,100666.00
2022-09-23T13:54:51.374Z,100662.40
2022-09-23T13:59:55.423Z,100658.40
2022-09-23T14:04:59.522Z,100657.80
2022-09-23T14:10:07.203Z,100650.60
2022-09-23T14:15:19.375Z,100649.40
2022-09-23T14:20:23.834Z,100642.80
2022-09-23T14:25:30.358Z,100635.40
2022-09-23T14:30:35.602Z,100630.60
2022-09-23T14:35:46.875Z,100629.80
2022-09-23T14:41:18.272Z,100627.40
2022-09-23T14:46:25.490Z,100627.40
2022-09-23T14:51:36.401Z,100621.00
2022-09-23T14:56:44.240Z,100621.40
2022-09-23T15:01:48.313Z,100615.40
2022-09-23T15:07:18.218Z,100618.60
2022-09-23T15:12:23.093Z,100611.80
2022-09-23T15:17:38.186Z,100612.00
2022-09-23T15:22:48.958Z,100609.80
2022-09-23T15:28:13.050Z,100608.60
2022-09-23T15:33:18.484Z,100603.00
2022-09-23T15:38:24.651Z,100603.20
2022-09-23T15:43:35.032Z,100599.20
2022-09-23T15:49:05.288Z,100594.60
2022-09-23T15:54:15.939Z,100592.40
2022-09-23T15:59:22.096Z,100594.80
2022-09-23T16:04:26.556Z,100589.80
2022-09-23T16:09:32.030Z,100591.00
2022-09-23T16:14:36.041Z,100591.00
2022-09-23T16:19:40.771Z,100594.00
2022-09-23T16:24:47.862Z,100588.60
2022-09-23T16:29:52.329Z,100588.60
2022-09-23T16:34:59.022Z,100586.60
2022-09-23T16:40:04.576Z,100589.40
2022-09-23T16:45:10.443Z,100587.60
2022-09-23T16:50:17.683Z,100592.40
2022-09-23T16:55:22.400Z,100591.00
2022-09-23T17:00:45.700Z,100587.20
2022-09-23T17:05:50.972Z,100578.80
2022-09-23T17:10:59.412Z,100577.00
2022-09-23T17:16:03.656Z,100573.40
2022-09-23T17:21:37.350Z,100565.40
2022-09-23T17:26:42.753Z,100563.60
2022-09-23T17:31:47.173Z,100565.60
2022-09-23T17:36:51.163Z,100567.00
2022-09-23T17:41:58.863Z,100572.80
2022-09-23T17:47:04.129Z,100570.40
2022-09-23T17:52:08.252Z,100567.40
2022-09-23T17:57:13.524Z,100565.80
2022-09-23T18:02:17.774Z,100571.20
2022-09-23T18:07:25.663Z,100570.40
2022-09-23T18:12:36.682Z,100567.40
2022-09-23T18:17:42.153Z,100567.40
2022-09-23T18:22:46.033Z,100567.20
2022-09-23T18:27:49.914Z,100564.60
2022-09-23T18:32:53.916Z,100567.80
2022-09-23T18:37:59.681Z,100575.40
2022-09-23T18:43:04.550Z,100567.20
2022-09-23T18:48:28.844Z,100570.20
2022-09-23T18:53:36.411Z,100569.80
2022-09-23T18:58:53.035Z,100567.20
2022-09-23T19:03:58.515Z,100564.60
2022-09-23T19:09:03.905Z,100562.00
2022-09-23T19:14:22.602Z,100563.20
2022-09-23T19:19:30.652Z,100564.00
2022-09-23T19:24:34.536Z,100566.80
2022-09-23T19:29:41.254Z,100566.00
2022-09-23T19:34:46.775Z,100567.60
2022-09-23T19:39:51.113Z,100569.80
2022-09-23T19:44:55.519Z,100577.40
2022-09-23T19:49:59.304Z,100575.80
2022-09-23T19:55:04.812Z,100574.80
2022-09-23T20:00:10.287Z,100573.20
2022-09-23T20:05:18.420Z,100566.80
2022-09-23T20:10:24.239Z,100563.60
2022-09-23T20:15:29.657Z,100554.60
2022-09-23T20:20:33.906Z,100550.80
2022-09-23T20:26:06.205Z,100547.60
2022-09-23T20:31:16.858Z,100546.20
2022-09-23T20:36:20.940Z,100539.80
2022-09-23T20:41:27.009Z,100540.60
2022-09-23T20:46:32.286Z,100538.00
2022-09-23T20:51:37.710Z,100537.40
2022-09-23T20:56:41.935Z,100545.00
2022-09-23T21:01:46.183Z,100549.00
2022-09-23T21:06:50.199Z,100541.80
2022-09-23T21:11:55.446Z,100541.60
2022-09-23T21:17:00.010Z,100541.40
2022-09-23T21:22:04.431Z,100541.40
2022-09-23T21:27:08.420Z,100544.40
2022-09-23T21:32:12.190Z,100545.60
2022-09-23T21:37:16.010Z,100543.60
2022-09-23T21:42:21.989Z,100539.40
2022-09-23T21:47:26.407Z,100535.80
2022-09-23T21:52:30.551Z,100534.60
2022-09-23T21:57:34.313Z,100534.60
2022-09-23T22:02:40.312Z,100534.20
2022-09-23T22:07:43.969Z,100532.00
2022-09-23T22:12:50.469Z,100529.20
2022-09-23T22:17:54.280Z,100530.40
2022-09-23T22:22:57.908Z,100536.40
2022-09-23T22:28:20.876Z,100535.60
2022-09-23T22:33:24.598Z,100535.00
2022-09-23T22:38:28.729Z,100535.40
2022-09-23T22:43:34.091Z,100535.40
2022-09-23T22:48:37.808Z,100531.60
2022-09-23T22:53:41.742Z,100526.80
2022-09-23T22:58:45.865Z,100527.20
2022-09-23T23:03:54.170Z,100523.00
2022-09-23T23:09:00.275Z,100518.60
2022-09-23T23:14:04.636Z,100512.20
2022-09-23T23:19:13.966Z,100512.60
2022-09-23T23:24:24.753Z,100511.80
2022-09-23T23:29:28.578Z,100504.80
2022-09-23T23:34:32.812Z,100505.20
2022-09-23T23:39:36.743Z,100506.20
2022-09-23T23:44:40.759Z,100499.20
2022-09-23T23:49:44.804Z,100503.80
2022-09-23T23:54:48.825Z,100506.40
2022-09-23T23:59:52.654Z,100501.20
